sensor_id;sensor_type;location;lat;lon;timestamp;P1;durP1;ratioP1;P2;durP2;ratioP2
66189;SDS011;52992;52.084;5.412;2022-11-20T00:01:19;13.97;;;8.37;;
66189;SDS011;52992;52.084;5.412;2022-11-20T00:03:48;14.60;;;8.40;;
66189;SDS011;52992;52.084;5.412;2022-11-20T00:06:17;13.33;;;7.73;;
66189;SDS011;52992;52.084;5.412;2022-11-20T00:08:46;13.33;;;8.17;;
66189;SDS011;52992;52.084;5.412;2022-11-20T00:11:20;14.93;;;8.07;;
66189;SDS011;52992;52.084;5.412;2022-11-20T00:13:50;13.57;;;8.17;;
66189;SDS011;52992;52.084;5.412;2022-11-20T00:16:20;15.93;;;9.33;;
66189;SDS011;52992;52.084;5.412;2022-11-20T00:18:48;15.23;;;8.67;;
66189;SDS011;52992;52.084;5.412;2022-11-20T00:21:17;16.37;;;8.90;;
66189;SDS011;52992;52.084;5.412;2022-11-20T00:23:48;16.30;;;9.23;;
66189;SDS011;52992;52.084;5.412;2022-11-20T00:26:17;14.03;;;8.50;;
66189;SDS011;52992;52.084;5.412;2022-11-20T00:28:49;13.90;;;8.60;;
66189;SDS011;52992;52.084;5.412;2022-11-20T00:31:17;15.80;;;9.03;;
66189;SDS011;52992;52.084;5.412;2022-11-20T00:33:44;17.23;;;9.70;;
66189;SDS011;52992;52.084;5.412;2022-11-20T00:36:13;16.57;;;8.37;;
66189;SDS011;52992;52.084;5.412;2022-11-20T00:38:41;14.90;;;8.10;;
66189;SDS011;52992;52.084;5.412;2022-11-20T00:41:10;13.13;;;7.73;;
66189;SDS011;52992;52.084;5.412;2022-11-20T00:43:38;14.27;;;8.53;;
66189;SDS011;52992;52.084;5.412;2022-11-20T00:46:06;16.70;;;9.23;;
66189;SDS011;52992;52.084;5.412;2022-11-20T00:48:34;16.83;;;9.60;;
66189;SDS011;52992;52.084;5.412;2022-11-20T00:51:01;14.97;;;8.30;;
66189;SDS011;52992;52.084;5.412;2022-11-20T00:53:28;15.67;;;8.40;;
66189;SDS011;52992;52.084;5.412;2022-11-20T00:55:59;16.07;;;9.30;;
66189;SDS011;52992;52.084;5.412;2022-11-20T00:58:34;16.47;;;9.00;;
66189;SDS011;52992;52.084;5.412;2022-11-20T01:01:04;16.43;;;8.47;;
66189;SDS011;52992;52.084;5.412;2022-11-20T01:03:33;14.13;;;8.40;;
66189;SDS011;52992;52.084;5.412;2022-11-20T01:06:01;15.33;;;9.13;;
66189;SDS011;52992;52.084;5.412;2022-11-20T01:08:33;14.83;;;8.60;;
66189;SDS011;52992;52.084;5.412;2022-11-20T01:11:01;16.83;;;8.80;;
66189;SDS011;52992;52.084;5.412;2022-11-20T01:13:30;17.10;;;9.73;;
66189;SDS011;52992;52.084;5.412;2022-11-20T01:19:06;17.40;;;9.67;;
66189;SDS011;52992;52.084;5.412;2022-11-20T01:21:39;18.97;;;10.10;;
66189;SDS011;52992;52.084;5.412;2022-11-20T01:24:08;63.80;;;23.70;;
66189;SDS011;52992;52.084;5.412;2022-11-20T01:26:38;37.10;;;18.13;;
66189;SDS011;52992;52.084;5.412;2022-11-20T01:29:06;33.70;;;14.93;;
66189;SDS011;52992;52.084;5.412;2022-11-20T01:31:37;19.03;;;9.67;;
66189;SDS011;52992;52.084;5.412;2022-11-20T01:34:04;17.40;;;9.93;;
66189;SDS011;52992;52.084;5.412;2022-11-20T01:36:33;24.37;;;11.73;;
66189;SDS011;52992;52.084;5.412;2022-11-20T01:39:03;18.57;;;9.40;;
66189;SDS011;52992;52.084;5.412;2022-11-20T01:41:33;16.70;;;9.60;;
66189;SDS011;52992;52.084;5.412;2022-11-20T01:44:54;18.47;;;9.10;;
66189;SDS011;52992;52.084;5.412;2022-11-20T01:47:32;20.10;;;9.47;;
66189;SDS011;52992;52.084;5.412;2022-11-20T01:52:42;18.37;;;10.67;;
66189;SDS011;52992;52.084;5.412;2022-11-20T01:55:18;20.33;;;10.27;;
66189;SDS011;52992;52.084;5.412;2022-11-20T01:57:47;17.50;;;9.60;;
66189;SDS011;52992;52.084;5.412;2022-11-20T02:00:16;15.83;;;9.63;;
66189;SDS011;52992;52.084;5.412;2022-11-20T02:02:57;19.30;;;9.50;;
66189;SDS011;52992;52.084;5.412;2022-11-20T02:08:41;17.13;;;9.13;;
66189;SDS011;52992;52.084;5.412;2022-11-20T02:11:08;13.93;;;8.43;;
66189;SDS011;52992;52.084;5.412;2022-11-20T02:13:35;19.73;;;9.57;;
66189;SDS011;52992;52.084;5.412;2022-11-20T02:16:33;18.40;;;9.30;;
66189;SDS011;52992;52.084;5.412;2022-11-20T02:19:02;16.30;;;9.53;;
66189;SDS011;52992;52.084;5.412;2022-11-20T02:21:45;19.17;;;9.47;;
66189;SDS011;52992;52.084;5.412;2022-11-20T02:24:18;17.07;;;9.13;;
66189;SDS011;52992;52.084;5.412;2022-11-20T02:26:48;18.77;;;10.13;;
66189;SDS011;52992;52.084;5.412;2022-11-20T02:29:25;19.83;;;8.90;;
66189;SDS011;52992;52.084;5.412;2022-11-20T02:31:57;15.37;;;9.03;;
66189;SDS011;52992;52.084;5.412;2022-11-20T02:34:26;21.53;;;9.93;;
66189;SDS011;52992;52.084;5.412;2022-11-20T02:36:53;17.50;;;10.03;;
66189;SDS011;52992;52.084;5.412;2022-11-20T02:39:20;21.13;;;9.83;;
66189;SDS011;52992;52.084;5.412;2022-11-20T02:41:50;17.30;;;9.27;;
66189;SDS011;52992;52.084;5.412;2022-11-20T02:44:19;16.37;;;8.97;;
66189;SDS011;52992;52.084;5.412;2022-11-20T02:46:46;17.27;;;9.43;;
66189;SDS011;52992;52.084;5.412;2022-11-20T02:49:13;14.73;;;8.57;;
66189;SDS011;52992;52.084;5.412;2022-11-20T02:51:40;14.47;;;8.50;;
66189;SDS011;52992;52.084;5.412;2022-11-20T02:54:07;14.80;;;8.67;;
66189;SDS011;52992;52.084;5.412;2022-11-20T02:56:34;13.93;;;8.13;;
66189;SDS011;52992;52.084;5.412;2022-11-20T02:59:00;15.20;;;8.80;;
66189;SDS011;52992;52.084;5.412;2022-11-20T03:01:27;18.00;;;9.40;;
66189;SDS011;52992;52.084;5.412;2022-11-20T03:03:54;19.63;;;10.07;;
66189;SDS011;52992;52.084;5.412;2022-11-20T03:06:22;20.63;;;10.03;;
66189;SDS011;52992;52.084;5.412;2022-11-20T03:08:48;19.50;;;11.20;;
66189;SDS011;52992;52.084;5.412;2022-11-20T03:11:15;19.93;;;11.73;;
66189;SDS011;52992;52.084;5.412;2022-11-20T03:13:43;29.70;;;11.70;;
66189;SDS011;52992;52.084;5.412;2022-11-20T03:16:10;16.17;;;8.97;;
66189;SDS011;52992;52.084;5.412;2022-11-20T03:18:39;17.13;;;9.30;;
66189;SDS011;52992;52.084;5.412;2022-11-20T03:21:08;15.07;;;8.97;;
66189;SDS011;52992;52.084;5.412;2022-11-20T03:23:36;20.80;;;10.43;;
66189;SDS011;52992;52.084;5.412;2022-11-20T03:26:12;20.10;;;9.67;;
66189;SDS011;52992;52.084;5.412;2022-11-20T03:28:48;20.67;;;9.83;;
66189;SDS011;52992;52.084;5.412;2022-11-20T03:31:18;24.47;;;10.43;;
66189;SDS011;52992;52.084;5.412;2022-11-20T03:33:47;16.70;;;9.00;;
66189;SDS011;52992;52.084;5.412;2022-11-20T03:36:14;22.70;;;9.80;;
66189;SDS011;52992;52.084;5.412;2022-11-20T03:38:42;15.17;;;9.27;;
66189;SDS011;52992;52.084;5.412;2022-11-20T03:41:11;15.40;;;9.23;;
66189;SDS011;52992;52.084;5.412;2022-11-20T03:43:39;15.87;;;8.43;;
66189;SDS011;52992;52.084;5.412;2022-11-20T03:46:06;15.13;;;8.50;;
66189;SDS011;52992;52.084;5.412;2022-11-20T03:48:33;18.03;;;9.23;;
66189;SDS011;52992;52.084;5.412;2022-11-20T03:51:10;19.57;;;9.20;;
66189;SDS011;52992;52.084;5.412;2022-11-20T03:53:43;14.10;;;9.17;;
66189;SDS011;52992;52.084;5.412;2022-11-20T03:56:11;18.23;;;9.80;;
66189;SDS011;52992;52.084;5.412;2022-11-20T03:58:39;16.90;;;10.23;;
66189;SDS011;52992;52.084;5.412;2022-11-20T04:01:09;19.30;;;10.37;;
66189;SDS011;52992;52.084;5.412;2022-11-20T04:03:38;17.07;;;9.30;;
66189;SDS011;52992;52.084;5.412;2022-11-20T04:06:07;14.40;;;8.90;;
66189;SDS011;52992;52.084;5.412;2022-11-20T04:08:36;16.83;;;9.53;;
66189;SDS011;52992;52.084;5.412;2022-11-20T04:11:16;16.97;;;9.60;;
66189;SDS011;52992;52.084;5.412;2022-11-20T04:13:48;17.17;;;8.80;;
66189;SDS011;52992;52.084;5.412;2022-11-20T04:16:17;16.10;;;9.13;;
66189;SDS011;52992;52.084;5.412;2022-11-20T04:18:44;17.80;;;9.27;;
66189;SDS011;52992;52.084;5.412;2022-11-20T04:21:12;14.13;;;8.80;;
66189;SDS011;52992;52.084;5.412;2022-11-20T04:23:39;16.53;;;9.07;;
66189;SDS011;52992;52.084;5.412;2022-11-20T04:26:07;16.20;;;8.93;;
66189;SDS011;52992;52.084;5.412;2022-11-20T04:28:35;17.17;;;9.17;;
66189;SDS011;52992;52.084;5.412;2022-11-20T04:31:03;15.30;;;8.43;;
66189;SDS011;52992;52.084;5.412;2022-11-20T04:33:31;12.17;;;7.80;;
66189;SDS011;52992;52.084;5.412;2022-11-20T04:36:03;18.27;;;8.70;;
66189;SDS011;52992;52.084;5.412;2022-11-20T04:38:34;14.90;;;8.83;;
66189;SDS011;52992;52.084;5.412;2022-11-20T04:41:01;16.23;;;8.93;;
66189;SDS011;52992;52.084;5.412;2022-11-20T04:43:29;17.47;;;8.63;;
66189;SDS011;52992;52.084;5.412;2022-11-20T04:45:57;16.17;;;8.70;;
66189;SDS011;52992;52.084;5.412;2022-11-20T04:48:28;18.40;;;8.87;;
66189;SDS011;52992;52.084;5.412;2022-11-20T04:50:55;15.37;;;8.70;;
66189;SDS011;52992;52.084;5.412;2022-11-20T04:53:22;17.17;;;9.70;;
66189;SDS011;52992;52.084;5.412;2022-11-20T04:55:49;18.10;;;9.50;;
66189;SDS011;52992;52.084;5.412;2022-11-20T04:58:16;14.67;;;8.60;;
66189;SDS011;52992;52.084;5.412;2022-11-20T05:00:43;14.03;;;8.10;;
66189;SDS011;52992;52.084;5.412;2022-11-20T05:03:10;16.00;;;8.90;;
66189;SDS011;52992;52.084;5.412;2022-11-20T05:05:36;16.93;;;9.10;;
66189;SDS011;52992;52.084;5.412;2022-11-20T05:08:03;14.80;;;8.17;;
66189;SDS011;52992;52.084;5.412;2022-11-20T05:10:30;16.60;;;8.90;;
66189;SDS011;52992;52.084;5.412;2022-11-20T05:12:57;14.87;;;8.10;;
66189;SDS011;52992;52.084;5.412;2022-11-20T05:15:24;14.73;;;8.53;;
66189;SDS011;52992;52.084;5.412;2022-11-20T05:17:51;15.60;;;8.53;;
66189;SDS011;52992;52.084;5.412;2022-11-20T05:20:19;13.70;;;8.47;;
66189;SDS011;52992;52.084;5.412;2022-11-20T05:22:46;15.03;;;8.53;;
66189;SDS011;52992;52.084;5.412;2022-11-20T05:25:13;13.83;;;8.37;;
66189;SDS011;52992;52.084;5.412;2022-11-20T05:27:39;15.27;;;8.27;;
66189;SDS011;52992;52.084;5.412;2022-11-20T05:30:07;18.23;;;8.30;;
66189;SDS011;52992;52.084;5.412;2022-11-20T05:32:34;14.90;;;8.60;;
66189;SDS011;52992;52.084;5.412;2022-11-20T05:35:01;15.83;;;8.77;;
66189;SDS011;52992;52.084;5.412;2022-11-20T05:37:28;17.63;;;8.87;;
66189;SDS011;52992;52.084;5.412;2022-11-20T05:39:54;15.63;;;8.67;;
66189;SDS011;52992;52.084;5.412;2022-11-20T05:42:21;17.60;;;9.83;;
66189;SDS011;52992;52.084;5.412;2022-11-20T05:44:57;17.37;;;8.60;;
66189;SDS011;52992;52.084;5.412;2022-11-20T05:47:25;16.23;;;9.17;;
66189;SDS011;52992;52.084;5.412;2022-11-20T05:49:53;19.27;;;10.80;;
66189;SDS011;52992;52.084;5.412;2022-11-20T05:52:20;18.50;;;10.27;;
66189;SDS011;52992;52.084;5.412;2022-11-20T05:54:47;13.50;;;8.40;;
66189;SDS011;52992;52.084;5.412;2022-11-20T05:57:14;15.70;;;9.07;;
66189;SDS011;52992;52.084;5.412;2022-11-20T05:59:41;17.17;;;9.13;;
66189;SDS011;52992;52.084;5.412;2022-11-20T06:02:08;17.27;;;9.17;;
66189;SDS011;52992;52.084;5.412;2022-11-20T06:04:35;16.30;;;9.17;;
66189;SDS011;52992;52.084;5.412;2022-11-20T06:07:01;16.20;;;8.27;;
66189;SDS011;52992;52.084;5.412;2022-11-20T06:09:28;14.67;;;9.03;;
66189;SDS011;52992;52.084;5.412;2022-11-20T06:11:55;14.10;;;8.53;;
66189;SDS011;52992;52.084;5.412;2022-11-20T06:14:22;15.67;;;8.43;;
66189;SDS011;52992;52.084;5.412;2022-11-20T06:16:49;16.37;;;8.07;;
66189;SDS011;52992;52.084;5.412;2022-11-20T06:19:16;13.93;;;8.73;;
66189;SDS011;52992;52.084;5.412;2022-11-20T06:21:43;17.00;;;9.10;;
66189;SDS011;52992;52.084;5.412;2022-11-20T06:24:10;13.17;;;7.83;;
66189;SDS011;52992;52.084;5.412;2022-11-20T06:26:37;13.53;;;8.10;;
66189;SDS011;52992;52.084;5.412;2022-11-20T06:29:04;18.30;;;8.93;;
66189;SDS011;52992;52.084;5.412;2022-11-20T06:31:31;15.63;;;9.90;;
66189;SDS011;52992;52.084;5.412;2022-11-20T06:34:04;18.17;;;10.70;;
66189;SDS011;52992;52.084;5.412;2022-11-20T06:36:32;18.53;;;11.70;;
66189;SDS011;52992;52.084;5.412;2022-11-20T06:38:59;19.17;;;10.10;;
66189;SDS011;52992;52.084;5.412;2022-11-20T06:41:27;17.53;;;9.33;;
66189;SDS011;52992;52.084;5.412;2022-11-20T06:43:54;20.77;;;9.50;;
66189;SDS011;52992;52.084;5.412;2022-11-20T06:46:21;16.23;;;9.30;;
66189;SDS011;52992;52.084;5.412;2022-11-20T06:48:48;17.70;;;9.40;;
66189;SDS011;52992;52.084;5.412;2022-11-20T06:51:16;20.27;;;9.73;;
66189;SDS011;52992;52.084;5.412;2022-11-20T06:53:43;17.13;;;9.10;;
66189;SDS011;52992;52.084;5.412;2022-11-20T06:56:10;17.63;;;9.20;;
66189;SDS011;52992;52.084;5.412;2022-11-20T06:58:37;16.13;;;9.10;;
66189;SDS011;52992;52.084;5.412;2022-11-20T07:01:04;17.83;;;9.27;;
66189;SDS011;52992;52.084;5.412;2022-11-20T07:03:33;17.40;;;9.23;;
66189;SDS011;52992;52.084;5.412;2022-11-20T07:06:00;16.90;;;9.20;;
66189;SDS011;52992;52.084;5.412;2022-11-20T07:08:28;15.00;;;9.60;;
66189;SDS011;52992;52.084;5.412;2022-11-20T07:11:02;15.00;;;8.50;;
66189;SDS011;52992;52.084;5.412;2022-11-20T07:13:31;16.67;;;9.33;;
66189;SDS011;52992;52.084;5.412;2022-11-20T07:16:02;20.53;;;10.20;;
66189;SDS011;52992;52.084;5.412;2022-11-20T07:18:31;16.63;;;9.40;;
66189;SDS011;52992;52.084;5.412;2022-11-20T07:21:01;16.97;;;9.70;;
66189;SDS011;52992;52.084;5.412;2022-11-20T07:23:36;16.83;;;9.00;;
66189;SDS011;52992;52.084;5.412;2022-11-20T07:26:07;20.17;;;10.03;;
66189;SDS011;52992;52.084;5.412;2022-11-20T07:28:36;16.47;;;9.23;;
66189;SDS011;52992;52.084;5.412;2022-11-20T07:31:03;18.27;;;10.83;;
66189;SDS011;52992;52.084;5.412;2022-11-20T07:33:31;20.80;;;10.30;;
66189;SDS011;52992;52.084;5.412;2022-11-20T07:35:58;19.07;;;10.73;;
66189;SDS011;52992;52.084;5.412;2022-11-20T07:38:26;20.63;;;12.77;;
66189;SDS011;52992;52.084;5.412;2022-11-20T07:40:53;20.67;;;11.67;;
66189;SDS011;52992;52.084;5.412;2022-11-20T07:43:21;21.37;;;11.47;;
66189;SDS011;52992;52.084;5.412;2022-11-20T07:45:48;21.80;;;10.97;;
66189;SDS011;52992;52.084;5.412;2022-11-20T07:48:16;21.50;;;11.13;;
66189;SDS011;52992;52.084;5.412;2022-11-20T07:50:42;24.03;;;11.10;;
66189;SDS011;52992;52.084;5.412;2022-11-20T07:53:09;23.60;;;12.13;;
66189;SDS011;52992;52.084;5.412;2022-11-20T07:55:36;21.47;;;11.87;;
66189;SDS011;52992;52.084;5.412;2022-11-20T07:58:03;22.43;;;12.63;;
66189;SDS011;52992;52.084;5.412;2022-11-20T08:00:30;30.17;;;15.23;;
66189;SDS011;52992;52.084;5.412;2022-11-20T08:02:57;40.30;;;18.77;;
66189;SDS011;52992;52.084;5.412;2022-11-20T08:05:23;35.50;;;18.73;;
66189;SDS011;52992;52.084;5.412;2022-11-20T08:07:50;35.27;;;17.77;;
66189;SDS011;52992;52.084;5.412;2022-11-20T08:10:17;28.80;;;14.57;;
66189;SDS011;52992;52.084;5.412;2022-11-20T08:12:50;25.67;;;12.90;;
66189;SDS011;52992;52.084;5.412;2022-11-20T08:15:37;23.47;;;12.30;;
66189;SDS011;52992;52.084;5.412;2022-11-20T08:18:09;24.23;;;13.57;;
66189;SDS011;52992;52.084;5.412;2022-11-20T08:20:58;22.63;;;13.43;;
66189;SDS011;52992;52.084;5.412;2022-11-20T08:23:28;26.37;;;13.07;;
66189;SDS011;52992;52.084;5.412;2022-11-20T08:25:55;24.57;;;13.10;;
66189;SDS011;52992;52.084;5.412;2022-11-20T08:28:22;22.83;;;12.80;;
66189;SDS011;52992;52.084;5.412;2022-11-20T08:30:49;24.57;;;14.23;;
66189;SDS011;52992;52.084;5.412;2022-11-20T08:33:16;23.77;;;14.20;;
66189;SDS011;52992;52.084;5.412;2022-11-20T08:35:44;23.23;;;13.83;;
66189;SDS011;52992;52.084;5.412;2022-11-20T08:38:11;20.43;;;12.40;;
66189;SDS011;52992;52.084;5.412;2022-11-20T08:40:38;22.10;;;11.50;;
66189;SDS011;52992;52.084;5.412;2022-11-20T08:43:05;23.70;;;13.37;;
66189;SDS011;52992;52.084;5.412;2022-11-20T08:45:31;25.77;;;13.30;;
66189;SDS011;52992;52.084;5.412;2022-11-20T08:48:01;23.47;;;12.40;;
66189;SDS011;52992;52.084;5.412;2022-11-20T08:50:29;23.43;;;13.37;;
66189;SDS011;52992;52.084;5.412;2022-11-20T08:53:05;26.60;;;14.53;;
66189;SDS011;52992;52.084;5.412;2022-11-20T08:55:32;24.40;;;14.23;;
66189;SDS011;52992;52.084;5.412;2022-11-20T08:58:04;23.87;;;13.30;;
66189;SDS011;52992;52.084;5.412;2022-11-20T09:00:32;23.03;;;12.33;;
66189;SDS011;52992;52.084;5.412;2022-11-20T09:03:00;23.57;;;12.77;;
66189;SDS011;52992;52.084;5.412;2022-11-20T09:05:27;22.63;;;14.68;;
66189;SDS011;52992;52.084;5.412;2022-11-20T09:07:57;28.50;;;14.03;;
66189;SDS011;52992;52.084;5.412;2022-11-20T09:10:25;21.67;;;12.63;;
66189;SDS011;52992;52.084;5.412;2022-11-20T09:12:53;20.90;;;11.80;;
66189;SDS011;52992;52.084;5.412;2022-11-20T09:15:21;22.30;;;12.47;;
66189;SDS011;52992;52.084;5.412;2022-11-20T09:17:51;19.63;;;11.47;;
66189;SDS011;52992;52.084;5.412;2022-11-20T09:20:18;23.10;;;13.63;;
66189;SDS011;52992;52.084;5.412;2022-11-20T09:22:45;19.93;;;11.47;;
66189;SDS011;52992;52.084;5.412;2022-11-20T09:25:12;19.40;;;11.57;;
66189;SDS011;52992;52.084;5.412;2022-11-20T09:27:39;24.77;;;13.20;;
66189;SDS011;52992;52.084;5.412;2022-11-20T09:30:07;21.63;;;11.80;;
66189;SDS011;52992;52.084;5.412;2022-11-20T09:32:38;23.60;;;12.77;;
66189;SDS011;52992;52.084;5.412;2022-11-20T09:35:05;23.90;;;13.10;;
66189;SDS011;52992;52.084;5.412;2022-11-20T09:37:32;23.23;;;12.87;;
66189;SDS011;52992;52.084;5.412;2022-11-20T09:39:59;22.73;;;11.30;;
66189;SDS011;52992;52.084;5.412;2022-11-20T09:42:45;21.70;;;12.20;;
66189;SDS011;52992;52.084;5.412;2022-11-20T09:45:21;20.60;;;12.00;;
66189;SDS011;52992;52.084;5.412;2022-11-20T09:50:49;25.40;;;12.80;;
66189;SDS011;52992;52.084;5.412;2022-11-20T09:53:25;30.57;;;14.97;;
66189;SDS011;52992;52.084;5.412;2022-11-20T09:56:02;28.50;;;15.73;;
66189;SDS011;52992;52.084;5.412;2022-11-20T09:58:32;29.83;;;15.63;;
66189;SDS011;52992;52.084;5.412;2022-11-20T10:01:10;25.87;;;14.10;;
66189;SDS011;52992;52.084;5.412;2022-11-20T10:06:18;25.77;;;14.33;;
66189;SDS011;52992;52.084;5.412;2022-11-20T10:08:55;25.83;;;14.43;;
66189;SDS011;52992;52.084;5.412;2022-11-20T10:14:15;24.87;;;13.77;;
66189;SDS011;52992;52.084;5.412;2022-11-20T10:16:50;25.30;;;13.33;;
66189;SDS011;52992;52.084;5.412;2022-11-20T10:25:00;26.90;;;13.47;;
66189;SDS011;52992;52.084;5.412;2022-11-20T10:27:46;23.07;;;13.73;;
66189;SDS011;52992;52.084;5.412;2022-11-20T10:30:20;24.80;;;14.17;;
66189;SDS011;52992;52.084;5.412;2022-11-20T10:32:54;26.17;;;14.33;;
66189;SDS011;52992;52.084;5.412;2022-11-20T10:37:59;26.27;;;14.70;;
66189;SDS011;52992;52.084;5.412;2022-11-20T10:40:33;23.27;;;13.63;;
66189;SDS011;52992;52.084;5.412;2022-11-20T10:45:43;32.07;;;17.00;;
66189;SDS011;52992;52.084;5.412;2022-11-20T10:48:22;33.47;;;16.67;;
66189;SDS011;52992;52.084;5.412;2022-11-20T10:50:57;29.17;;;15.67;;
66189;SDS011;52992;52.084;5.412;2022-11-20T10:56:35;30.93;;;16.53;;
66189;SDS011;52992;52.084;5.412;2022-11-20T11:01:53;35.23;;;17.33;;
66189;SDS011;52992;52.084;5.412;2022-11-20T11:04:32;29.20;;;16.40;;
66189;SDS011;52992;52.084;5.412;2022-11-20T11:07:26;31.27;;;16.20;;
66189;SDS011;52992;52.084;5.412;2022-11-20T11:10:14;29.83;;;15.27;;
66189;SDS011;52992;52.084;5.412;2022-11-20T11:13:00;33.17;;;16.47;;
66189;SDS011;52992;52.084;5.412;2022-11-20T11:15:29;33.37;;;18.07;;
66189;SDS011;52992;52.084;5.412;2022-11-20T11:18:08;33.17;;;17.90;;
66189;SDS011;52992;52.084;5.412;2022-11-20T11:20:37;36.67;;;18.47;;
66189;SDS011;52992;52.084;5.412;2022-11-20T11:23:04;35.67;;;18.80;;
66189;SDS011;52992;52.084;5.412;2022-11-20T11:25:33;35.93;;;18.90;;
66189;SDS011;52992;52.084;5.412;2022-11-20T11:28:02;32.60;;;18.80;;
66189;SDS011;52992;52.084;5.412;2022-11-20T11:30:41;35.50;;;19.27;;
66189;SDS011;52992;52.084;5.412;2022-11-20T11:33:10;34.30;;;19.10;;
66189;SDS011;52992;52.084;5.412;2022-11-20T11:35:43;40.00;;;20.10;;
66189;SDS011;52992;52.084;5.412;2022-11-20T11:38:19;44.13;;;19.80;;
66189;SDS011;52992;52.084;5.412;2022-11-20T11:40:49;37.20;;;20.30;;
66189;SDS011;52992;52.084;5.412;2022-11-20T11:43:20;39.47;;;19.50;;
66189;SDS011;52992;52.084;5.412;2022-11-20T11:46:28;40.93;;;19.07;;
66189;SDS011;52992;52.084;5.412;2022-11-20T11:52:08;41.60;;;20.57;;
66189;SDS011;52992;52.084;5.412;2022-11-20T11:55:00;40.30;;;19.03;;
66189;SDS011;52992;52.084;5.412;2022-11-20T12:00:10;39.77;;;20.00;;
66189;SDS011;52992;52.084;5.412;2022-11-20T12:07:56;41.60;;;19.67;;
66189;SDS011;52992;52.084;5.412;2022-11-20T12:10:39;40.33;;;19.37;;
66189;SDS011;52992;52.084;5.412;2022-11-20T12:15:50;43.30;;;20.70;;
66189;SDS011;52992;52.084;5.412;2022-11-20T12:18:18;45.90;;;21.70;;
66189;SDS011;52992;52.084;5.412;2022-11-20T12:23:56;41.93;;;20.97;;
66189;SDS011;52992;52.084;5.412;2022-11-20T12:29:31;40.37;;;19.83;;
66189;SDS011;52992;52.084;5.412;2022-11-20T12:39:55;40.30;;;19.77;;
66189;SDS011;52992;52.084;5.412;2022-11-20T12:42:32;44.40;;;21.03;;
66189;SDS011;52992;52.084;5.412;2022-11-20T13:02:17;45.57;;;21.80;;
66189;SDS011;52992;52.084;5.412;2022-11-20T13:05:21;48.27;;;23.33;;
66189;SDS011;52992;52.084;5.412;2022-11-20T13:08:03;47.23;;;23.07;;
66189;SDS011;52992;52.084;5.412;2022-11-20T13:16:03;41.20;;;21.37;;
66189;SDS011;52992;52.084;5.412;2022-11-20T13:18:40;46.30;;;22.73;;
66189;SDS011;52992;52.084;5.412;2022-11-20T13:21:16;46.20;;;22.43;;
66189;SDS011;52992;52.084;5.412;2022-11-20T13:24:04;37.10;;;20.50;;
66189;SDS011;52992;52.084;5.412;2022-11-20T13:27:17;41.67;;;21.17;;
66189;SDS011;52992;52.084;5.412;2022-11-20T13:29:58;45.53;;;21.67;;
66189;SDS011;52992;52.084;5.412;2022-11-20T13:32:47;39.03;;;20.50;;
66189;SDS011;52992;52.084;5.412;2022-11-20T13:35:54;38.60;;;19.57;;
66189;SDS011;52992;52.084;5.412;2022-11-20T13:38:23;40.13;;;20.77;;
66189;SDS011;52992;52.084;5.412;2022-11-20T13:40:54;45.27;;;22.43;;
66189;SDS011;52992;52.084;5.412;2022-11-20T13:43:40;42.83;;;21.13;;
66189;SDS011;52992;52.084;5.412;2022-11-20T13:46:09;40.63;;;21.90;;
66189;SDS011;52992;52.084;5.412;2022-11-20T13:48:39;43.00;;;21.77;;
66189;SDS011;52992;52.084;5.412;2022-11-20T14:02:23;44.20;;;21.70;;
66189;SDS011;52992;52.084;5.412;2022-11-20T14:04:54;46.50;;;21.00;;
66189;SDS011;52992;52.084;5.412;2022-11-20T14:07:36;46.20;;;22.37;;
66189;SDS011;52992;52.084;5.412;2022-11-20T14:10:18;51.23;;;22.60;;
66189;SDS011;52992;52.084;5.412;2022-11-20T14:12:58;52.37;;;23.37;;
66189;SDS011;52992;52.084;5.412;2022-11-20T14:15:35;54.50;;;23.67;;
66189;SDS011;52992;52.084;5.412;2022-11-20T14:18:14;50.03;;;22.87;;
66189;SDS011;52992;52.084;5.412;2022-11-20T14:20:45;48.70;;;21.63;;
66189;SDS011;52992;52.084;5.412;2022-11-20T14:23:22;47.90;;;22.50;;
66189;SDS011;52992;52.084;5.412;2022-11-20T14:25:55;55.93;;;24.23;;
66189;SDS011;52992;52.084;5.412;2022-11-20T14:28:26;51.20;;;23.23;;
66189;SDS011;52992;52.084;5.412;2022-11-20T14:30:57;48.53;;;22.37;;
66189;SDS011;52992;52.084;5.412;2022-11-20T14:33:25;48.33;;;21.57;;
66189;SDS011;52992;52.084;5.412;2022-11-20T14:35:53;51.30;;;21.80;;
66189;SDS011;52992;52.084;5.412;2022-11-20T14:38:26;52.70;;;23.37;;
66189;SDS011;52992;52.084;5.412;2022-11-20T14:41:05;54.90;;;21.73;;
66189;SDS011;52992;52.084;5.412;2022-11-20T14:43:44;53.70;;;23.30;;
66189;SDS011;52992;52.084;5.412;2022-11-20T14:46:13;49.77;;;22.13;;
66189;SDS011;52992;52.084;5.412;2022-11-20T14:48:43;52.47;;;23.60;;
66189;SDS011;52992;52.084;5.412;2022-11-20T14:54:11;48.07;;;23.30;;
66189;SDS011;52992;52.084;5.412;2022-11-20T14:56:41;50.77;;;22.97;;
66189;SDS011;52992;52.084;5.412;2022-11-20T14:59:08;48.80;;;22.97;;
66189;SDS011;52992;52.084;5.412;2022-11-20T15:01:35;54.90;;;24.07;;
66189;SDS011;52992;52.084;5.412;2022-11-20T15:04:08;53.33;;;22.93;;
66189;SDS011;52992;52.084;5.412;2022-11-20T15:06:37;53.47;;;24.57;;
66189;SDS011;52992;52.084;5.412;2022-11-20T15:09:16;51.33;;;24.17;;
66189;SDS011;52992;52.084;5.412;2022-11-20T15:14:26;57.77;;;24.67;;
66189;SDS011;52992;52.084;5.412;2022-11-20T15:16:54;54.87;;;25.13;;
66189;SDS011;52992;52.084;5.412;2022-11-20T15:19:22;54.73;;;25.20;;
66189;SDS011;52992;52.084;5.412;2022-11-20T15:21:51;52.13;;;25.13;;
66189;SDS011;52992;52.084;5.412;2022-11-20T15:24:18;59.50;;;26.40;;
66189;SDS011;52992;52.084;5.412;2022-11-20T15:26:45;60.83;;;26.87;;
66189;SDS011;52992;52.084;5.412;2022-11-20T15:29:13;57.47;;;24.87;;
66189;SDS011;52992;52.084;5.412;2022-11-20T15:31:44;56.17;;;24.17;;
66189;SDS011;52992;52.084;5.412;2022-11-20T15:34:12;64.43;;;25.73;;
66189;SDS011;52992;52.084;5.412;2022-11-20T15:36:41;77.63;;;29.33;;
66189;SDS011;52992;52.084;5.412;2022-11-20T15:39:09;57.13;;;26.47;;
66189;SDS011;52992;52.084;5.412;2022-11-20T15:41:37;73.40;;;28.77;;
66189;SDS011;52992;52.084;5.412;2022-11-20T15:44:04;70.57;;;29.00;;
66189;SDS011;52992;52.084;5.412;2022-11-20T15:46:32;62.67;;;27.37;;
66189;SDS011;52992;52.084;5.412;2022-11-20T15:49:04;73.70;;;27.63;;
66189;SDS011;52992;52.084;5.412;2022-11-20T15:54:01;72.50;;;27.37;;
66189;SDS011;52992;52.084;5.412;2022-11-20T15:56:40;68.63;;;28.07;;
66189;SDS011;52992;52.084;5.412;2022-11-20T15:59:07;75.77;;;27.73;;
66189;SDS011;52992;52.084;5.412;2022-11-20T16:01:34;76.77;;;27.47;;
66189;SDS011;52992;52.084;5.412;2022-11-20T16:04:02;72.27;;;27.73;;
66189;SDS011;52992;52.084;5.412;2022-11-20T16:06:28;68.93;;;26.67;;
66189;SDS011;52992;52.084;5.412;2022-11-20T16:08:55;74.00;;;28.13;;
66189;SDS011;52992;52.084;5.412;2022-11-20T16:11:22;81.27;;;29.80;;
66189;SDS011;52992;52.084;5.412;2022-11-20T16:13:49;69.33;;;27.07;;
66189;SDS011;52992;52.084;5.412;2022-11-20T16:16:35;69.63;;;26.37;;
66189;SDS011;52992;52.084;5.412;2022-11-20T16:19:03;72.90;;;29.17;;
66189;SDS011;52992;52.084;5.412;2022-11-20T16:21:31;75.57;;;30.17;;
66189;SDS011;52992;52.084;5.412;2022-11-20T16:23:58;73.47;;;30.07;;
66189;SDS011;52992;52.084;5.412;2022-11-20T16:26:26;96.27;;;28.87;;
66189;SDS011;52992;52.084;5.412;2022-11-20T16:28:53;80.63;;;29.53;;
66189;SDS011;52992;52.084;5.412;2022-11-20T16:31:21;80.10;;;30.47;;